Pagrindinis puslapis
METAR-TAF:

METAR-TAF

Oro uostai :

Old Crow, Jukonas, Kanada

platuma: 67-34N, ilguma: 139-49W, Aukštis: 251 m

Dabartinis oras

Ataskaita buvo paskelbta 26 minutes, ne 21:00 UTC
Vėjas 6 kt iš Rytų/Šiaurės Rytų, svyruoja nuo Šiaurės Rytų ir Pietryčių
Temperatūra 6°C
Drėgmė 93%
Slėgis 991 hPa
Matomumas: 9.7 km
Su prošvaistėmis ne aukštis 1400 ft
Su prošvaistėmis ne aukštis 3400 ft
lietus

METAR: CYOC 212100Z 06006KT 050V130 6SM -RA BKN014 BKN034 06/05 A2926 RMK ST5SC2 VIS N 2 1/2 SLP923

Laikas: 14:26 (21:26 UTC)

Prognozė

Ataskaita buvo paskelbta 3 valandos ir 48 minutes, ne 17:38 UTC
Prognozė galioja nuo 21 metu 18 UTC su 22 metu 01 UTC
Vėjas 8 kt iš Šiaurės
Matomumas: 10 km
Išsisklaidę debesys ne aukštis 1500 ft
Su prošvaistėmis ne aukštis 4000 ft
Laikinai
nuo 21 metu 18 UTC su 22 metu 01 UTC
Matomumas: 8.0 km
Su prošvaistėmis ne aukštis 1500 ft
Apsiniaukę ne aukštis 3000 ft
lietus, rūkana

TAF: CYOC 211738Z 2118/2201 36008KT P6SM SCT015 BKN040 TEMPO 2118/2201 5SM -RA BR BKN015 OVC030 RMK NXT FCST WILL BE ISSUED AT 221445Z

Orai ataskaitas ir orų prognozės (METAR, TAF).

turimą stotys yra geltonos ir raudonos taškus žemėlapyje.

Perkelti pele per norėdami pamatyti stoties vardą.

Tada spustelėkite, norėdami matyti oro stebėjimo ir prognozės.

Norėdami pakeisti žemėlapį: spustelėkite ant žalios mygtukų su juodo kryžiaus žemyn,; žalią mygtuką su brūkšneliu, jei norite nutolinti; arba žalių rodyklių gretimoms žemėlapius.


METAR-TAF: